BAW2157 TAPA-TKPK
Flight info
| Callsign | BAW2157 |
|---|---|
| Flight time | 0h 19m |
| Altitude | 8000 |
| Route | ANU G633 SKB |
| Aircraft | B772/H-SDE2E3FGHIJ5LORVWXY/LB1D1 |
Departure
| Time | 2026-05-05 00:16 |
|---|---|
| Airport | V. C. Bird International Airport (TAPA) |
Arrival
| Time | 2026-05-05 00:36 |
|---|---|
| Airport | Robert L. Bradshaw International Airport (TKPK) |
| Time | Latitude | Longitude | Altitude | Speed | Heading |
|---|---|---|---|---|---|
| 2026-05-04 23:53 | 17.14057 | -61.79091 | 68 ft | 0 kts | 330° |
| 2026-05-05 00:06 | 17.14044 | -61.79083 | 58 ft | 4 kts | 323° |
| 2026-05-05 00:06 | 17.14024 | -61.79064 | 58 ft | 4 kts | 305° |
| 2026-05-05 00:06 | 17.14013 | -61.79039 | 58 ft | 4 kts | 276° |
| 2026-05-05 00:06 | 17.14015 | -61.79016 | 58 ft | 1 kts | 237° |
| 2026-05-05 00:07 | 17.14018 | -61.79012 | 58 ft | 0 kts | 237° |
| 2026-05-05 00:10 | 17.14014 | -61.79019 | 59 ft | 9 kts | 237° |
| 2026-05-05 00:10 | 17.13971 | -61.79087 | 60 ft | 11 kts | 233° |
| 2026-05-05 00:10 | 17.13908 | -61.79124 | 60 ft | 8 kts | 199° |
| 2026-05-05 00:11 | 17.13855 | -61.79115 | 63 ft | 8 kts | 154° |
| 2026-05-05 00:11 | 17.13831 | -61.79102 | 65 ft | 0 kts | 154° |
| 2026-05-05 00:11 | 17.13814 | -61.79095 | 65 ft | 6 kts | 158° |
| 2026-05-05 00:12 | 17.13775 | -61.79106 | 65 ft | 6 kts | 216° |
| 2026-05-05 00:12 | 17.13749 | -61.79140 | 64 ft | 6 kts | 235° |
| 2026-05-05 00:12 | 17.13699 | -61.79221 | 64 ft | 18 kts | 238° |
| 2026-05-05 00:12 | 17.13633 | -61.79331 | 65 ft | 18 kts | 238° |
| 2026-05-05 00:13 | 17.13568 | -61.79443 | 66 ft | 18 kts | 238° |
| 2026-05-05 00:13 | 17.13502 | -61.79555 | 64 ft | 18 kts | 238° |
| 2026-05-05 00:13 | 17.13435 | -61.79667 | 62 ft | 18 kts | 238° |
| 2026-05-05 00:13 | 17.13369 | -61.79777 | 64 ft | 18 kts | 238° |
| 2026-05-05 00:14 | 17.13303 | -61.79890 | 61 ft | 18 kts | 238° |
| 2026-05-05 00:14 | 17.13237 | -61.80003 | 62 ft | 18 kts | 238° |
| 2026-05-05 00:14 | 17.13180 | -61.80105 | 62 ft | 11 kts | 239° |
| 2026-05-05 00:14 | 17.13120 | -61.80141 | 63 ft | 9 kts | 209° |
| 2026-05-05 00:15 | 17.13127 | -61.80184 | 60 ft | 6 kts | 339° |
| 2026-05-05 00:15 | 17.13144 | -61.80169 | 63 ft | 0 kts | 60° |
| 2026-05-05 00:15 | 17.13228 | -61.80025 | 63 ft | 61 kts | 58° |
| 2026-05-05 00:16 | 17.13596 | -61.79396 | 72 ft | 141 kts | 59° |
| 2026-05-05 00:16 | 17.14195 | -61.78430 | 644 ft | 158 kts | 57° |
| 2026-05-05 00:16 | 17.14909 | -61.77639 | 1687 ft | 154 kts | 30° |
| 2026-05-05 00:16 | 17.15606 | -61.77400 | 1963 ft | 165 kts | 16° |
| 2026-05-05 00:17 | 17.16810 | -61.77386 | 2473 ft | 183 kts | 348° |
| 2026-05-05 00:17 | 17.17947 | -61.78190 | 2761 ft | 216 kts | 304° |
| 2026-05-05 00:17 | 17.18425 | -61.79707 | 2994 ft | 241 kts | 275° |
| 2026-05-05 00:17 | 17.18527 | -61.81520 | 3295 ft | 268 kts | 270° |
| 2026-05-05 00:18 | 17.18562 | -61.83555 | 3967 ft | 281 kts | 270° |
| 2026-05-05 00:18 | 17.18596 | -61.85609 | 4876 ft | 284 kts | 271° |
| 2026-05-05 00:18 | 17.18640 | -61.87659 | 5654 ft | 290 kts | 270° |
| 2026-05-05 00:18 | 17.18698 | -61.89815 | 6613 ft | 290 kts | 270° |
| 2026-05-05 00:19 | 17.18765 | -61.91926 | 7445 ft | 292 kts | 271° |
| 2026-05-05 00:19 | 17.18840 | -61.94056 | 7982 ft | 293 kts | 271° |
| 2026-05-05 00:19 | 17.18921 | -61.96217 | 8078 ft | 300 kts | 271° |
| 2026-05-05 00:19 | 17.19007 | -61.98396 | 8073 ft | 301 kts | 271° |
| 2026-05-05 00:20 | 17.19096 | -62.00579 | 8077 ft | 299 kts | 271° |
| 2026-05-05 00:20 | 17.19185 | -62.02725 | 8071 ft | 300 kts | 271° |
| 2026-05-05 00:20 | 17.19274 | -62.04893 | 8081 ft | 298 kts | 271° |
| 2026-05-05 00:20 | 17.19364 | -62.07059 | 8081 ft | 297 kts | 271° |
| 2026-05-05 00:21 | 17.19453 | -62.09220 | 8074 ft | 296 kts | 271° |
| 2026-05-05 00:21 | 17.19543 | -62.11368 | 8080 ft | 295 kts | 271° |
| 2026-05-05 00:21 | 17.19634 | -62.13523 | 8075 ft | 296 kts | 271° |
| 2026-05-05 00:21 | 17.19723 | -62.15681 | 8082 ft | 299 kts | 271° |
| 2026-05-05 00:22 | 17.19814 | -62.17858 | 8073 ft | 299 kts | 271° |
| 2026-05-05 00:22 | 17.19903 | -62.20008 | 8075 ft | 300 kts | 271° |
| 2026-05-05 00:22 | 17.19993 | -62.22187 | 8081 ft | 299 kts | 271° |
| 2026-05-05 00:22 | 17.20082 | -62.24356 | 8080 ft | 299 kts | 271° |
| 2026-05-05 00:23 | 17.20171 | -62.26511 | 8072 ft | 300 kts | 272° |
| 2026-05-05 00:23 | 17.20261 | -62.28713 | 8064 ft | 299 kts | 272° |
| 2026-05-05 00:23 | 17.20350 | -62.30883 | 8061 ft | 298 kts | 272° |
| 2026-05-05 00:23 | 17.20439 | -62.33054 | 8057 ft | 298 kts | 271° |
| 2026-05-05 00:24 | 17.20527 | -62.35225 | 8071 ft | 297 kts | 271° |
| 2026-05-05 00:24 | 17.20614 | -62.37367 | 8063 ft | 299 kts | 271° |
| 2026-05-05 00:24 | 17.20701 | -62.39551 | 8068 ft | 301 kts | 270° |
| 2026-05-05 00:24 | 17.20549 | -62.41722 | 8066 ft | 297 kts | 258° |
| 2026-05-05 00:25 | 17.20107 | -62.43805 | 8081 ft | 299 kts | 255° |
| 2026-05-05 00:25 | 17.19593 | -62.45917 | 8075 ft | 299 kts | 254° |
| 2026-05-05 00:25 | 17.19082 | -62.48026 | 8066 ft | 299 kts | 255° |
| 2026-05-05 00:25 | 17.18585 | -62.50136 | 8065 ft | 298 kts | 255° |
| 2026-05-05 00:26 | 17.18103 | -62.52236 | 8062 ft | 297 kts | 255° |
| 2026-05-05 00:26 | 17.17628 | -62.54336 | 8067 ft | 296 kts | 255° |
| 2026-05-05 00:26 | 17.17160 | -62.56432 | 8074 ft | 296 kts | 256° |
| 2026-05-05 00:26 | 17.16694 | -62.58531 | 8066 ft | 297 kts | 255° |
| 2026-05-05 00:27 | 17.16230 | -62.60627 | 8076 ft | 298 kts | 256° |
| 2026-05-05 00:27 | 17.15762 | -62.62750 | 8071 ft | 299 kts | 255° |
| 2026-05-05 00:27 | 17.15293 | -62.64871 | 7959 ft | 297 kts | 256° |
| 2026-05-05 00:27 | 17.14828 | -62.66978 | 7682 ft | 295 kts | 256° |
| 2026-05-05 00:28 | 17.14367 | -62.69062 | 7359 ft | 293 kts | 256° |
| 2026-05-05 00:28 | 17.13919 | -62.71093 | 7042 ft | 292 kts | 256° |
| 2026-05-05 00:28 | 17.13459 | -62.73174 | 6712 ft | 291 kts | 255° |
| 2026-05-05 00:28 | 17.13003 | -62.75234 | 6374 ft | 291 kts | 256° |
| 2026-05-05 00:29 | 17.12547 | -62.77295 | 6015 ft | 290 kts | 255° |
| 2026-05-05 00:29 | 17.12091 | -62.79354 | 5682 ft | 289 kts | 255° |
| 2026-05-05 00:29 | 17.11637 | -62.81399 | 5358 ft | 288 kts | 255° |
| 2026-05-05 00:29 | 17.11442 | -62.83426 | 4992 ft | 282 kts | 278° |
| 2026-05-05 00:30 | 17.12142 | -62.85306 | 4649 ft | 281 kts | 306° |
| 2026-05-05 00:30 | 17.13536 | -62.86739 | 4283 ft | 280 kts | 327° |
| 2026-05-05 00:30 | 17.15142 | -62.87830 | 3977 ft | 261 kts | 329° |
| 2026-05-05 00:30 | 17.16584 | -62.88810 | 3842 ft | 237 kts | 330° |
| 2026-05-05 00:31 | 17.18036 | -62.89413 | 3754 ft | 215 kts | 0° |
| 2026-05-05 00:31 | 17.19395 | -62.89148 | 3683 ft | 196 kts | 30° |
| 2026-05-05 00:31 | 17.20540 | -62.88412 | 3684 ft | 190 kts | 44° |
| 2026-05-05 00:31 | 17.21374 | -62.87366 | 3601 ft | 187 kts | 60° |
| 2026-05-05 00:32 | 17.22094 | -62.86217 | 3497 ft | 190 kts | 61° |
| 2026-05-05 00:32 | 17.22831 | -62.85030 | 3281 ft | 195 kts | 60° |
| 2026-05-05 00:32 | 17.23570 | -62.83851 | 3013 ft | 195 kts | 61° |
| 2026-05-05 00:32 | 17.24308 | -62.82665 | 2725 ft | 195 kts | 60° |
| 2026-05-05 00:33 | 17.25047 | -62.81488 | 2463 ft | 187 kts | 60° |
| 2026-05-05 00:33 | 17.25723 | -62.80421 | 2205 ft | 172 kts | 61° |
| 2026-05-05 00:33 | 17.26348 | -62.79433 | 1919 ft | 154 kts | 62° |
| 2026-05-05 00:33 | 17.26909 | -62.78546 | 1683 ft | 139 kts | 62° |
| 2026-05-05 00:34 | 17.27431 | -62.77718 | 1457 ft | 132 kts | 63° |
| 2026-05-05 00:34 | 17.27928 | -62.76927 | 1265 ft | 128 kts | 62° |
| 2026-05-05 00:34 | 17.28420 | -62.76147 | 1039 ft | 128 kts | 61° |
| 2026-05-05 00:34 | 17.28905 | -62.75413 | 874 ft | 122 kts | 61° |
| 2026-05-05 00:35 | 17.29367 | -62.74657 | 672 ft | 125 kts | 64° |
| 2026-05-05 00:35 | 17.29828 | -62.73888 | 497 ft | 126 kts | 60° |
| 2026-05-05 00:35 | 17.30332 | -62.73106 | 318 ft | 130 kts | 59° |
| 2026-05-05 00:35 | 17.30823 | -62.72323 | 198 ft | 121 kts | 60° |
| 2026-05-05 00:36 | 17.31235 | -62.71668 | 176 ft | 92 kts | 53° |
| 2026-05-05 00:36 | 17.31499 | -62.71253 | 175 ft | 46 kts | 56° |
| 2026-05-05 00:36 | 17.31605 | -62.71082 | 176 ft | 8 kts | 57° |
| 2026-05-05 00:36 | 17.31623 | -62.71029 | 176 ft | 8 kts | 86° |
| 2026-05-05 00:37 | 17.31624 | -62.70970 | 176 ft | 8 kts | 73° |
| 2026-05-05 00:37 | 17.31665 | -62.70977 | 176 ft | 8 kts | 283° |
| 2026-05-05 00:37 | 17.31639 | -62.71030 | 176 ft | 8 kts | 239° |
| 2026-05-05 00:37 | 17.31609 | -62.71081 | 176 ft | 8 kts | 237° |
| 2026-05-05 00:38 | 17.31579 | -62.71130 | 176 ft | 8 kts | 237° |
| 2026-05-05 00:38 | 17.31546 | -62.71180 | 176 ft | 8 kts | 236° |
| 2026-05-05 00:38 | 17.31514 | -62.71230 | 176 ft | 8 kts | 236° |
| 2026-05-05 00:38 | 17.31482 | -62.71279 | 175 ft | 8 kts | 236° |
| 2026-05-05 00:39 | 17.31446 | -62.71324 | 175 ft | 8 kts | 217° |
| 2026-05-05 00:39 | 17.31398 | -62.71356 | 175 ft | 8 kts | 211° |
| 2026-05-05 00:39 | 17.30908 | -62.72186 | 179 ft | 0 kts | 62° |
| 2026-05-05 00:39 | 17.30909 | -62.72184 | 179 ft | 3 kts | 62° |
| 2026-05-05 00:40 | 17.30977 | -62.72064 | 180 ft | 17 kts | 56° |
| 2026-05-05 00:40 | 17.31033 | -62.71959 | 179 ft | 17 kts | 74° |
| 2026-05-05 00:40 | 17.31047 | -62.71879 | 178 ft | 17 kts | 84° |
| 2026-05-05 00:40 | 17.31064 | -62.71763 | 177 ft | 16 kts | 82° |
| 2026-05-05 00:41 | 17.31101 | -62.71666 | 177 ft | 8 kts | 53° |
| 2026-05-05 00:41 | 17.31124 | -62.71632 | 177 ft | 8 kts | 54° |
| 2026-05-05 00:41 | 17.31156 | -62.71583 | 177 ft | 8 kts | 56° |
| 2026-05-05 00:41 | 17.31187 | -62.71532 | 177 ft | 8 kts | 63° |
| 2026-05-05 00:42 | 17.31186 | -62.71474 | 177 ft | 7 kts | 100° |
| 2026-05-05 00:42 | 17.31166 | -62.71467 | 177 ft | 3 kts | 194° |
| 2026-05-05 00:42 | 17.31165 | -62.71467 | 177 ft | 0 kts | 194° |